sensor_id;sensor_type;location;lat;lon;timestamp;temperature;humidity
65044;DHT22;51617;48.158;16.464;2023-02-28T00:02:17;2.90;84.60
65044;DHT22;51617;48.158;16.464;2023-02-28T00:04:43;2.90;84.40
65044;DHT22;51617;48.158;16.464;2023-02-28T00:07:09;2.90;84.50
65044;DHT22;51617;48.158;16.464;2023-02-28T00:09:34;2.90;85.20
65044;DHT22;51617;48.158;16.464;2023-02-28T00:12:00;2.90;84.40
65044;DHT22;51617;48.158;16.464;2023-02-28T00:14:25;2.90;84.30
65044;DHT22;51617;48.158;16.464;2023-02-28T00:16:51;2.90;84.10
65044;DHT22;51617;48.158;16.464;2023-02-28T00:19:16;2.90;84.10
65044;DHT22;51617;48.158;16.464;2023-02-28T00:21:42;2.80;83.90
65044;DHT22;51617;48.158;16.464;2023-02-28T00:24:08;2.90;83.90
65044;DHT22;51617;48.158;16.464;2023-02-28T00:26:33;2.90;83.90
65044;DHT22;51617;48.158;16.464;2023-02-28T00:28:59;2.80;83.80
65044;DHT22;51617;48.158;16.464;2023-02-28T00:31:24;2.90;84.00
65044;DHT22;51617;48.158;16.464;2023-02-28T00:33:50;2.90;84.10
65044;DHT22;51617;48.158;16.464;2023-02-28T00:36:17;2.90;84.30
65044;DHT22;51617;48.158;16.464;2023-02-28T00:38:42;2.80;83.70
65044;DHT22;51617;48.158;16.464;2023-02-28T00:41:08;2.90;83.90
65044;DHT22;51617;48.158;16.464;2023-02-28T00:43:34;2.90;83.70
65044;DHT22;51617;48.158;16.464;2023-02-28T00:46:00;2.90;83.50
65044;DHT22;51617;48.158;16.464;2023-02-28T00:48:26;2.90;83.30
65044;DHT22;51617;48.158;16.464;2023-02-28T00:50:51;2.90;83.30
65044;DHT22;51617;48.158;16.464;2023-02-28T00:53:17;2.80;83.50
65044;DHT22;51617;48.158;16.464;2023-02-28T00:55:42;2.90;83.50
65044;DHT22;51617;48.158;16.464;2023-02-28T00:58:08;2.80;83.20
65044;DHT22;51617;48.158;16.464;2023-02-28T01:00:33;2.90;83.40
65044;DHT22;51617;48.158;16.464;2023-02-28T01:02:59;2.90;83.50
65044;DHT22;51617;48.158;16.464;2023-02-28T01:05:25;2.80;83.00
65044;DHT22;51617;48.158;16.464;2023-02-28T01:07:50;2.80;83.20
65044;DHT22;51617;48.158;16.464;2023-02-28T01:10:16;2.80;83.50
65044;DHT22;51617;48.158;16.464;2023-02-28T01:12:42;2.70;83.90
65044;DHT22;51617;48.158;16.464;2023-02-28T01:15:09;2.60;83.80
65044;DHT22;51617;48.158;16.464;2023-02-28T01:17:35;2.70;83.60
65044;DHT22;51617;48.158;16.464;2023-02-28T01:20:01;2.70;83.80
65044;DHT22;51617;48.158;16.464;2023-02-28T01:22:26;2.70;84.00
65044;DHT22;51617;48.158;16.464;2023-02-28T01:24:52;2.60;84.40
65044;DHT22;51617;48.158;16.464;2023-02-28T01:27:18;2.70;84.20
65044;DHT22;51617;48.158;16.464;2023-02-28T01:29:43;2.70;84.20
65044;DHT22;51617;48.158;16.464;2023-02-28T01:32:09;2.70;84.10
65044;DHT22;51617;48.158;16.464;2023-02-28T01:34:34;2.70;84.40
65044;DHT22;51617;48.158;16.464;2023-02-28T01:37:00;2.70;84.30
65044;DHT22;51617;48.158;16.464;2023-02-28T01:39:26;2.80;84.50
65044;DHT22;51617;48.158;16.464;2023-02-28T01:41:52;2.80;83.50
65044;DHT22;51617;48.158;16.464;2023-02-28T01:47:01;2.70;84.00
65044;DHT22;51617;48.158;16.464;2023-02-28T01:49:27;2.70;83.80
65044;DHT22;51617;48.158;16.464;2023-02-28T01:51:53;2.80;83.70
65044;DHT22;51617;48.158;16.464;2023-02-28T01:54:27;2.80;83.40
65044;DHT22;51617;48.158;16.464;2023-02-28T01:56:56;2.70;83.50
65044;DHT22;51617;48.158;16.464;2023-02-28T01:59:25;2.70;83.70
65044;DHT22;51617;48.158;16.464;2023-02-28T02:01:52;2.70;83.70
65044;DHT22;51617;48.158;16.464;2023-02-28T02:04:18;2.80;83.90
65044;DHT22;51617;48.158;16.464;2023-02-28T02:06:45;2.80;84.10
65044;DHT22;51617;48.158;16.464;2023-02-28T02:09:12;2.80;84.10
65044;DHT22;51617;48.158;16.464;2023-02-28T02:11:39;2.80;84.30
65044;DHT22;51617;48.158;16.464;2023-02-28T02:14:28;2.80;84.30
65044;DHT22;51617;48.158;16.464;2023-02-28T02:17:08;2.80;83.90
65044;DHT22;51617;48.158;16.464;2023-02-28T02:20:37;2.80;84.10
65044;DHT22;51617;48.158;16.464;2023-02-28T02:37:44;2.60;84.50
65044;DHT22;51617;48.158;16.464;2023-02-28T02:40:19;2.60;84.50
65044;DHT22;51617;48.158;16.464;2023-02-28T02:42:48;2.60;84.80
65044;DHT22;51617;48.158;16.464;2023-02-28T02:47:50;2.60;85.00
65044;DHT22;51617;48.158;16.464;2023-02-28T02:50:19;2.60;84.80
65044;DHT22;51617;48.158;16.464;2023-02-28T02:52:46;2.70;85.30
65044;DHT22;51617;48.158;16.464;2023-02-28T02:55:15;2.60;85.40
65044;DHT22;51617;48.158;16.464;2023-02-28T03:00:08;2.60;85.40
65044;DHT22;51617;48.158;16.464;2023-02-28T03:02:34;2.60;85.30
65044;DHT22;51617;48.158;16.464;2023-02-28T03:05:03;2.60;85.20
65044;DHT22;51617;48.158;16.464;2023-02-28T03:07:29;2.60;85.20
65044;DHT22;51617;48.158;16.464;2023-02-28T03:09:56;2.60;85.20
65044;DHT22;51617;48.158;16.464;2023-02-28T03:12:23;2.70;85.20
65044;DHT22;51617;48.158;16.464;2023-02-28T03:14:57;2.60;85.00
65044;DHT22;51617;48.158;16.464;2023-02-28T03:20:15;2.60;85.20
65044;DHT22;51617;48.158;16.464;2023-02-28T03:25:29;2.50;85.40
65044;DHT22;51617;48.158;16.464;2023-02-28T03:28:00;2.40;85.60
65044;DHT22;51617;48.158;16.464;2023-02-28T03:30:39;2.40;85.80
65044;DHT22;51617;48.158;16.464;2023-02-28T03:33:14;2.30;86.00
65044;DHT22;51617;48.158;16.464;2023-02-28T03:35:47;2.30;86.20
65044;DHT22;51617;48.158;16.464;2023-02-28T03:38:15;2.30;86.50
65044;DHT22;51617;48.158;16.464;2023-02-28T03:40:45;2.20;87.20
65044;DHT22;51617;48.158;16.464;2023-02-28T03:43:14;2.20;87.40
65044;DHT22;51617;48.158;16.464;2023-02-28T03:45:42;2.20;87.40
65044;DHT22;51617;48.158;16.464;2023-02-28T03:48:11;2.20;87.30
65044;DHT22;51617;48.158;16.464;2023-02-28T03:50:41;2.30;87.00
65044;DHT22;51617;48.158;16.464;2023-02-28T03:53:15;2.40;86.90
65044;DHT22;51617;48.158;16.464;2023-02-28T03:55:45;2.40;87.00
65044;DHT22;51617;48.158;16.464;2023-02-28T03:58:13;2.40;87.20
65044;DHT22;51617;48.158;16.464;2023-02-28T04:00:40;2.30;87.30
65044;DHT22;51617;48.158;16.464;2023-02-28T04:03:08;2.40;88.10
65044;DHT22;51617;48.158;16.464;2023-02-28T04:05:39;2.40;87.80
65044;DHT22;51617;48.158;16.464;2023-02-28T04:08:11;2.40;87.70
65044;DHT22;51617;48.158;16.464;2023-02-28T04:10:37;2.50;87.60
65044;DHT22;51617;48.158;16.464;2023-02-28T04:13:02;2.50;87.20
65044;DHT22;51617;48.158;16.464;2023-02-28T04:15:28;2.50;87.00
65044;DHT22;51617;48.158;16.464;2023-02-28T04:17:54;2.50;87.00
65044;DHT22;51617;48.158;16.464;2023-02-28T04:20:19;2.40;88.00
65044;DHT22;51617;48.158;16.464;2023-02-28T04:22:45;2.40;87.80
65044;DHT22;51617;48.158;16.464;2023-02-28T04:25:10;2.40;87.50
65044;DHT22;51617;48.158;16.464;2023-02-28T04:27:36;2.40;87.50
65044;DHT22;51617;48.158;16.464;2023-02-28T04:30:02;2.30;87.90
65044;DHT22;51617;48.158;16.464;2023-02-28T04:32:28;2.30;88.10
65044;DHT22;51617;48.158;16.464;2023-02-28T04:34:53;2.20;88.00
65044;DHT22;51617;48.158;16.464;2023-02-28T04:37:19;2.10;88.30
65044;DHT22;51617;48.158;16.464;2023-02-28T04:39:44;2.10;88.40
65044;DHT22;51617;48.158;16.464;2023-02-28T04:42:10;2.10;88.40
65044;DHT22;51617;48.158;16.464;2023-02-28T04:44:36;2.10;88.70
65044;DHT22;51617;48.158;16.464;2023-02-28T04:47:02;2.00;88.70
65044;DHT22;51617;48.158;16.464;2023-02-28T04:49:27;2.00;88.80
65044;DHT22;51617;48.158;16.464;2023-02-28T04:51:53;1.90;89.40
65044;DHT22;51617;48.158;16.464;2023-02-28T04:54:19;1.90;89.50
65044;DHT22;51617;48.158;16.464;2023-02-28T04:56:44;1.90;90.00
65044;DHT22;51617;48.158;16.464;2023-02-28T04:59:10;1.90;90.00
65044;DHT22;51617;48.158;16.464;2023-02-28T05:01:35;1.80;90.20
65044;DHT22;51617;48.158;16.464;2023-02-28T05:04:03;1.80;90.40
65044;DHT22;51617;48.158;16.464;2023-02-28T05:06:31;1.80;90.50
65044;DHT22;51617;48.158;16.464;2023-02-28T05:08:56;1.80;90.60
65044;DHT22;51617;48.158;16.464;2023-02-28T05:11:29;1.80;90.70
65044;DHT22;51617;48.158;16.464;2023-02-28T05:14:00;1.80;90.70
65044;DHT22;51617;48.158;16.464;2023-02-28T05:16:26;1.70;91.00
65044;DHT22;51617;48.158;16.464;2023-02-28T05:18:51;1.70;91.10
65044;DHT22;51617;48.158;16.464;2023-02-28T05:21:26;1.80;91.30
65044;DHT22;51617;48.158;16.464;2023-02-28T05:23:52;1.80;91.40
65044;DHT22;51617;48.158;16.464;2023-02-28T05:26:18;1.80;91.30
65044;DHT22;51617;48.158;16.464;2023-02-28T05:28:43;1.80;91.30
65044;DHT22;51617;48.158;16.464;2023-02-28T05:31:10;1.80;91.30
65044;DHT22;51617;48.158;16.464;2023-02-28T05:33:36;1.70;91.70
65044;DHT22;51617;48.158;16.464;2023-02-28T05:36:01;1.70;91.70
65044;DHT22;51617;48.158;16.464;2023-02-28T05:38:27;1.60;91.70
65044;DHT22;51617;48.158;16.464;2023-02-28T05:40:52;1.70;91.60
65044;DHT22;51617;48.158;16.464;2023-02-28T05:43:18;1.70;91.70
65044;DHT22;51617;48.158;16.464;2023-02-28T05:45:44;1.60;92.10
65044;DHT22;51617;48.158;16.464;2023-02-28T05:48:09;1.60;92.30
65044;DHT22;51617;48.158;16.464;2023-02-28T05:50:35;1.60;92.20
65044;DHT22;51617;48.158;16.464;2023-02-28T05:53:01;1.70;92.20
65044;DHT22;51617;48.158;16.464;2023-02-28T05:55:26;1.70;91.90
65044;DHT22;51617;48.158;16.464;2023-02-28T05:57:52;1.70;92.30
65044;DHT22;51617;48.158;16.464;2023-02-28T06:00:18;1.80;92.10
65044;DHT22;51617;48.158;16.464;2023-02-28T06:02:43;1.90;91.80
65044;DHT22;51617;48.158;16.464;2023-02-28T06:05:18;2.00;91.70
65044;DHT22;51617;48.158;16.464;2023-02-28T06:07:43;2.00;91.40
65044;DHT22;51617;48.158;16.464;2023-02-28T06:10:10;2.10;91.40
65044;DHT22;51617;48.158;16.464;2023-02-28T06:12:36;2.10;91.30
65044;DHT22;51617;48.158;16.464;2023-02-28T06:15:01;2.10;91.50
65044;DHT22;51617;48.158;16.464;2023-02-28T06:17:27;2.10;91.40
65044;DHT22;51617;48.158;16.464;2023-02-28T06:19:52;2.20;91.30
65044;DHT22;51617;48.158;16.464;2023-02-28T06:22:18;2.20;91.20
65044;DHT22;51617;48.158;16.464;2023-02-28T06:24:44;2.30;91.10
65044;DHT22;51617;48.158;16.464;2023-02-28T06:27:09;2.30;91.00
65044;DHT22;51617;48.158;16.464;2023-02-28T06:29:35;2.40;91.00
65044;DHT22;51617;48.158;16.464;2023-02-28T06:32:01;2.30;91.00
65044;DHT22;51617;48.158;16.464;2023-02-28T06:34:26;2.40;91.10
65044;DHT22;51617;48.158;16.464;2023-02-28T06:36:52;2.50;90.90
65044;DHT22;51617;48.158;16.464;2023-02-28T06:39:17;2.40;90.90
65044;DHT22;51617;48.158;16.464;2023-02-28T06:41:43;2.60;90.90
65044;DHT22;51617;48.158;16.464;2023-02-28T06:44:17;2.60;91.00
65044;DHT22;51617;48.158;16.464;2023-02-28T06:46:43;2.60;91.00
65044;DHT22;51617;48.158;16.464;2023-02-28T06:49:09;2.60;91.10
65044;DHT22;51617;48.158;16.464;2023-02-28T06:51:35;2.70;90.80
65044;DHT22;51617;48.158;16.464;2023-02-28T06:54:01;2.70;90.80
65044;DHT22;51617;48.158;16.464;2023-02-28T06:56:27;2.70;90.70
65044;DHT22;51617;48.158;16.464;2023-02-28T06:58:52;2.80;90.70
65044;DHT22;51617;48.158;16.464;2023-02-28T07:01:18;2.80;90.70
65044;DHT22;51617;48.158;16.464;2023-02-28T07:03:44;2.90;90.60
65044;DHT22;51617;48.158;16.464;2023-02-28T07:06:10;2.90;90.60
65044;DHT22;51617;48.158;16.464;2023-02-28T07:08:35;3.10;90.40
65044;DHT22;51617;48.158;16.464;2023-02-28T07:11:01;3.20;90.20
65044;DHT22;51617;48.158;16.464;2023-02-28T07:13:27;3.20;90.20
65044;DHT22;51617;48.158;16.464;2023-02-28T07:15:56;3.20;89.70
65044;DHT22;51617;48.158;16.464;2023-02-28T07:18:22;3.20;90.10
65044;DHT22;51617;48.158;16.464;2023-02-28T07:20:48;3.30;90.10
65044;DHT22;51617;48.158;16.464;2023-02-28T07:23:13;3.40;90.00
65044;DHT22;51617;48.158;16.464;2023-02-28T07:25:39;3.60;89.60
65044;DHT22;51617;48.158;16.464;2023-02-28T07:28:04;3.70;89.20
65044;DHT22;51617;48.158;16.464;2023-02-28T07:30:30;3.80;88.70
65044;DHT22;51617;48.158;16.464;2023-02-28T07:32:55;3.80;87.70
65044;DHT22;51617;48.158;16.464;2023-02-28T07:35:21;3.80;87.90
65044;DHT22;51617;48.158;16.464;2023-02-28T07:37:47;3.90;87.90
65044;DHT22;51617;48.158;16.464;2023-02-28T07:40:13;4.00;87.10
65044;DHT22;51617;48.158;16.464;2023-02-28T07:42:39;3.90;87.20
65044;DHT22;51617;48.158;16.464;2023-02-28T07:45:05;4.10;87.40
65044;DHT22;51617;48.158;16.464;2023-02-28T07:47:31;4.20;86.70
65044;DHT22;51617;48.158;16.464;2023-02-28T07:49:57;4.20;86.30
65044;DHT22;51617;48.158;16.464;2023-02-28T07:52:23;4.30;85.70
65044;DHT22;51617;48.158;16.464;2023-02-28T07:54:49;4.40;85.00
65044;DHT22;51617;48.158;16.464;2023-02-28T07:57:15;4.40;85.30
65044;DHT22;51617;48.158;16.464;2023-02-28T07:59:41;4.40;85.10
65044;DHT22;51617;48.158;16.464;2023-02-28T08:02:06;4.50;84.50
65044;DHT22;51617;48.158;16.464;2023-02-28T08:04:32;4.50;84.10
65044;DHT22;51617;48.158;16.464;2023-02-28T08:06:57;4.50;84.50
65044;DHT22;51617;48.158;16.464;2023-02-28T08:09:23;4.60;84.80
65044;DHT22;51617;48.158;16.464;2023-02-28T08:11:49;4.70;84.40
65044;DHT22;51617;48.158;16.464;2023-02-28T08:14:15;4.90;84.00
65044;DHT22;51617;48.158;16.464;2023-02-28T08:16:40;4.90;83.00
65044;DHT22;51617;48.158;16.464;2023-02-28T08:19:08;5.00;83.30
65044;DHT22;51617;48.158;16.464;2023-02-28T08:21:34;5.00;83.10
65044;DHT22;51617;48.158;16.464;2023-02-28T08:23:59;5.10;82.80
65044;DHT22;51617;48.158;16.464;2023-02-28T08:26:25;5.10;83.00
65044;DHT22;51617;48.158;16.464;2023-02-28T08:28:51;5.10;82.60
65044;DHT22;51617;48.158;16.464;2023-02-28T08:31:17;5.10;82.60
65044;DHT22;51617;48.158;16.464;2023-02-28T08:33:43;5.10;83.10
65044;DHT22;51617;48.158;16.464;2023-02-28T08:36:10;5.10;82.40
65044;DHT22;51617;48.158;16.464;2023-02-28T08:38:36;5.20;82.70
65044;DHT22;51617;48.158;16.464;2023-02-28T08:41:03;5.30;82.90
65044;DHT22;51617;48.158;16.464;2023-02-28T08:43:31;5.30;81.90
65044;DHT22;51617;48.158;16.464;2023-02-28T08:45:56;5.30;82.30
65044;DHT22;51617;48.158;16.464;2023-02-28T08:48:22;5.40;82.10
65044;DHT22;51617;48.158;16.464;2023-02-28T08:53:22;5.50;80.50
65044;DHT22;51617;48.158;16.464;2023-02-28T08:55:56;5.40;80.80
65044;DHT22;51617;48.158;16.464;2023-02-28T08:58:21;5.30;81.50
65044;DHT22;51617;48.158;16.464;2023-02-28T09:00:47;5.40;81.10
65044;DHT22;51617;48.158;16.464;2023-02-28T09:03:12;5.30;81.30
65044;DHT22;51617;48.158;16.464;2023-02-28T09:05:38;5.20;81.30
65044;DHT22;51617;48.158;16.464;2023-02-28T09:08:04;5.20;82.00
65044;DHT22;51617;48.158;16.464;2023-02-28T09:10:29;5.20;82.00
65044;DHT22;51617;48.158;16.464;2023-02-28T09:12:55;5.20;82.10
65044;DHT22;51617;48.158;16.464;2023-02-28T09:15:20;4.90;82.60
65044;DHT22;51617;48.158;16.464;2023-02-28T09:17:46;5.00;83.10
65044;DHT22;51617;48.158;16.464;2023-02-28T09:20:11;5.10;82.70
65044;DHT22;51617;48.158;16.464;2023-02-28T09:22:37;5.10;82.60
65044;DHT22;51617;48.158;16.464;2023-02-28T09:25:02;5.20;82.70
65044;DHT22;51617;48.158;16.464;2023-02-28T09:27:28;5.20;82.70
65044;DHT22;51617;48.158;16.464;2023-02-28T09:29:54;5.30;82.90
65044;DHT22;51617;48.158;16.464;2023-02-28T09:32:19;5.30;83.00
65044;DHT22;51617;48.158;16.464;2023-02-28T09:34:45;5.50;82.70
65044;DHT22;51617;48.158;16.464;2023-02-28T09:37:10;5.50;82.70
65044;DHT22;51617;48.158;16.464;2023-02-28T09:39:36;5.50;82.50
65044;DHT22;51617;48.158;16.464;2023-02-28T09:42:01;5.70;82.40
65044;DHT22;51617;48.158;16.464;2023-02-28T09:44:29;5.80;82.10
65044;DHT22;51617;48.158;16.464;2023-02-28T09:47:00;6.00;81.70
65044;DHT22;51617;48.158;16.464;2023-02-28T09:49:42;6.20;81.70
65044;DHT22;51617;48.158;16.464;2023-02-28T09:52:30;6.30;80.90
65044;DHT22;51617;48.158;16.464;2023-02-28T09:54:55;6.40;80.30
65044;DHT22;51617;48.158;16.464;2023-02-28T09:59:59;6.90;79.80
65044;DHT22;51617;48.158;16.464;2023-02-28T10:05:08;6.90;78.60
65044;DHT22;51617;48.158;16.464;2023-02-28T10:10:02;7.20;78.20
65044;DHT22;51617;48.158;16.464;2023-02-28T10:12:30;7.30;78.50
65044;DHT22;51617;48.158;16.464;2023-02-28T10:14:57;7.40;77.70
65044;DHT22;51617;48.158;16.464;2023-02-28T10:17:25;7.50;77.60
65044;DHT22;51617;48.158;16.464;2023-02-28T10:20:12;7.60;76.80
65044;DHT22;51617;48.158;16.464;2023-02-28T10:25:23;7.60;76.80
65044;DHT22;51617;48.158;16.464;2023-02-28T10:27:49;7.60;76.90
65044;DHT22;51617;48.158;16.464;2023-02-28T10:30:15;7.60;76.20
65044;DHT22;51617;48.158;16.464;2023-02-28T10:32:42;7.60;76.80
65044;DHT22;51617;48.158;16.464;2023-02-28T10:37:40;7.80;76.40
65044;DHT22;51617;48.158;16.464;2023-02-28T10:40:06;7.80;75.30
65044;DHT22;51617;48.158;16.464;2023-02-28T10:42:33;7.80;75.40
65044;DHT22;51617;48.158;16.464;2023-02-28T10:45:37;7.70;76.60
65044;DHT22;51617;48.158;16.464;2023-02-28T10:48:04;7.70;76.60
65044;DHT22;51617;48.158;16.464;2023-02-28T10:50:44;7.90;75.10
65044;DHT22;51617;48.158;16.464;2023-02-28T10:58:48;8.20;74.90
65044;DHT22;51617;48.158;16.464;2023-02-28T11:01:16;8.30;74.90
65044;DHT22;51617;48.158;16.464;2023-02-28T11:03:42;8.30;74.30
65044;DHT22;51617;48.158;16.464;2023-02-28T11:06:13;8.40;74.00
65044;DHT22;51617;48.158;16.464;2023-02-28T11:08:46;8.50;73.60
65044;DHT22;51617;48.158;16.464;2023-02-28T11:11:12;8.50;72.90
65044;DHT22;51617;48.158;16.464;2023-02-28T11:13:38;8.60;72.70
65044;DHT22;51617;48.158;16.464;2023-02-28T11:16:04;8.60;72.90
65044;DHT22;51617;48.158;16.464;2023-02-28T11:21:05;8.50;71.90
65044;DHT22;51617;48.158;16.464;2023-02-28T11:23:32;8.50;72.00
65044;DHT22;51617;48.158;16.464;2023-02-28T11:26:00;8.60;71.90
65044;DHT22;51617;48.158;16.464;2023-02-28T11:31:05;8.60;70.70
65044;DHT22;51617;48.158;16.464;2023-02-28T11:33:42;8.60;71.10
65044;DHT22;51617;48.158;16.464;2023-02-28T11:38:38;8.80;71.40
65044;DHT22;51617;48.158;16.464;2023-02-28T11:48:28;8.90;68.10
65044;DHT22;51617;48.158;16.464;2023-02-28T11:56:10;8.90;68.70
65044;DHT22;51617;48.158;16.464;2023-02-28T12:03:56;9.00;68.10
65044;DHT22;51617;48.158;16.464;2023-02-28T12:16:47;8.90;67.80
65044;DHT22;51617;48.158;16.464;2023-02-28T12:19:20;9.00;67.20
65044;DHT22;51617;48.158;16.464;2023-02-28T12:26:44;9.10;66.80
65044;DHT22;51617;48.158;16.464;2023-02-28T12:31:36;9.20;66.00
65044;DHT22;51617;48.158;16.464;2023-02-28T12:34:05;9.20;64.90
65044;DHT22;51617;48.158;16.464;2023-02-28T12:36:31;9.20;64.70
65044;DHT22;51617;48.158;16.464;2023-02-28T12:39:04;9.30;64.80
65044;DHT22;51617;48.158;16.464;2023-02-28T12:41:40;9.40;64.90
65044;DHT22;51617;48.158;16.464;2023-02-28T12:44:15;9.30;63.90
65044;DHT22;51617;48.158;16.464;2023-02-28T12:46:44;9.40;64.30
65044;DHT22;51617;48.158;16.464;2023-02-28T12:49:16;9.40;64.30
65044;DHT22;51617;48.158;16.464;2023-02-28T12:51:43;9.30;63.60
65044;DHT22;51617;48.158;16.464;2023-02-28T12:56:49;9.30;64.30
65044;DHT22;51617;48.158;16.464;2023-02-28T12:59:31;9.30;63.40
65044;DHT22;51617;48.158;16.464;2023-02-28T13:07:29;9.30;62.10
65044;DHT22;51617;48.158;16.464;2023-02-28T13:09:59;9.40;62.10
65044;DHT22;51617;48.158;16.464;2023-02-28T13:12:25;9.10;62.10
65044;DHT22;51617;48.158;16.464;2023-02-28T13:15:01;9.10;62.70
65044;DHT22;51617;48.158;16.464;2023-02-28T13:17:27;9.20;62.60
65044;DHT22;51617;48.158;16.464;2023-02-28T13:24:54;9.50;61.80
65044;DHT22;51617;48.158;16.464;2023-02-28T13:29:49;9.60;61.60
65044;DHT22;51617;48.158;16.464;2023-02-28T13:35:34;9.60;60.80
65044;DHT22;51617;48.158;16.464;2023-02-28T13:42:36;9.70;60.70
65044;DHT22;51617;48.158;16.464;2023-02-28T13:47:29;10.00;61.40
65044;DHT22;51617;48.158;16.464;2023-02-28T13:55:29;10.10;61.70
65044;DHT22;51617;48.158;16.464;2023-02-28T14:00:42;10.00;62.10
65044;DHT22;51617;48.158;16.464;2023-02-28T14:05:37;10.10;61.70
65044;DHT22;51617;48.158;16.464;2023-02-28T14:08:08;10.10;61.80
65044;DHT22;51617;48.158;16.464;2023-02-28T14:10:45;10.20;62.00
65044;DHT22;51617;48.158;16.464;2023-02-28T14:13:13;10.10;61.20
65044;DHT22;51617;48.158;16.464;2023-02-28T14:15:46;10.00;61.30
65044;DHT22;51617;48.158;16.464;2023-02-28T14:18:22;10.20;61.70
65044;DHT22;51617;48.158;16.464;2023-02-28T14:20:49;10.20;61.70
65044;DHT22;51617;48.158;16.464;2023-02-28T14:23:42;10.30;61.60
65044;DHT22;51617;48.158;16.464;2023-02-28T14:31:15;10.00;61.50
65044;DHT22;51617;48.158;16.464;2023-02-28T14:33:46;10.10;61.30
65044;DHT22;51617;48.158;16.464;2023-02-28T14:38:42;10.10;61.30
65044;DHT22;51617;48.158;16.464;2023-02-28T14:41:22;10.10;61.10
65044;DHT22;51617;48.158;16.464;2023-02-28T14:43:52;10.30;60.90
65044;DHT22;51617;48.158;16.464;2023-02-28T14:46:18;10.30;61.20
65044;DHT22;51617;48.158;16.464;2023-02-28T14:48:45;10.30;61.00
65044;DHT22;51617;48.158;16.464;2023-02-28T14:51:11;10.30;61.10
65044;DHT22;51617;48.158;16.464;2023-02-28T14:53:37;10.40;61.10
65044;DHT22;51617;48.158;16.464;2023-02-28T14:56:03;10.40;60.40
65044;DHT22;51617;48.158;16.464;2023-02-28T14:58:29;10.40;60.80
65044;DHT22;51617;48.158;16.464;2023-02-28T15:00:57;10.30;61.70
65044;DHT22;51617;48.158;16.464;2023-02-28T15:03:43;10.30;61.50
65044;DHT22;51617;48.158;16.464;2023-02-28T15:06:14;10.20;61.50
65044;DHT22;51617;48.158;16.464;2023-02-28T15:08:39;10.10;61.60
65044;DHT22;51617;48.158;16.464;2023-02-28T15:11:06;10.30;61.10
65044;DHT22;51617;48.158;16.464;2023-02-28T15:13:36;10.30;61.20
65044;DHT22;51617;48.158;16.464;2023-02-28T15:16:03;10.50;61.40
65044;DHT22;51617;48.158;16.464;2023-02-28T15:18:36;10.40;61.10
65044;DHT22;51617;48.158;16.464;2023-02-28T15:21:12;10.30;61.30
65044;DHT22;51617;48.158;16.464;2023-02-28T15:23:38;10.20;61.40
65044;DHT22;51617;48.158;16.464;2023-02-28T15:26:05;10.10;60.60
65044;DHT22;51617;48.158;16.464;2023-02-28T15:28:32;9.70;61.90
65044;DHT22;51617;48.158;16.464;2023-02-28T15:30:59;9.60;62.60
65044;DHT22;51617;48.158;16.464;2023-02-28T15:33:29;9.50;62.70
65044;DHT22;51617;48.158;16.464;2023-02-28T15:36:05;9.50;63.10
65044;DHT22;51617;48.158;16.464;2023-02-28T15:38:32;9.40;62.30
65044;DHT22;51617;48.158;16.464;2023-02-28T15:40:58;9.30;62.60
65044;DHT22;51617;48.158;16.464;2023-02-28T15:43:31;9.20;62.70
65044;DHT22;51617;48.158;16.464;2023-02-28T15:48:30;9.00;63.30
65044;DHT22;51617;48.158;16.464;2023-02-28T15:53:23;8.90;63.80
65044;DHT22;51617;48.158;16.464;2023-02-28T15:55:54;8.80;63.70
65044;DHT22;51617;48.158;16.464;2023-02-28T15:58:20;8.60;63.60
65044;DHT22;51617;48.158;16.464;2023-02-28T16:00:59;8.60;63.80
65044;DHT22;51617;48.158;16.464;2023-02-28T16:03:35;8.50;64.40
65044;DHT22;51617;48.158;16.464;2023-02-28T16:08:47;8.20;65.60
65044;DHT22;51617;48.158;16.464;2023-02-28T16:11:14;8.00;65.70
65044;DHT22;51617;48.158;16.464;2023-02-28T16:13:39;8.00;66.10
65044;DHT22;51617;48.158;16.464;2023-02-28T16:16:05;8.10;65.90
65044;DHT22;51617;48.158;16.464;2023-02-28T16:18:31;8.00;66.10
65044;DHT22;51617;48.158;16.464;2023-02-28T16:20:56;7.90;66.20
65044;DHT22;51617;48.158;16.464;2023-02-28T16:23:22;7.80;66.70
65044;DHT22;51617;48.158;16.464;2023-02-28T16:25:47;7.70;66.60
65044;DHT22;51617;48.158;16.464;2023-02-28T16:28:20;7.60;66.70
65044;DHT22;51617;48.158;16.464;2023-02-28T16:30:46;7.60;67.00
65044;DHT22;51617;48.158;16.464;2023-02-28T16:33:12;7.40;67.40
65044;DHT22;51617;48.158;16.464;2023-02-28T16:35:37;7.40;67.60
65044;DHT22;51617;48.158;16.464;2023-02-28T16:38:03;7.30;67.80
65044;DHT22;51617;48.158;16.464;2023-02-28T16:40:29;7.20;68.20
65044;DHT22;51617;48.158;16.464;2023-02-28T16:42:58;7.10;68.50
65044;DHT22;51617;48.158;16.464;2023-02-28T16:45:26;7.20;68.30
65044;DHT22;51617;48.158;16.464;2023-02-28T16:47:52;7.10;68.40
65044;DHT22;51617;48.158;16.464;2023-02-28T16:50:21;7.10;68.60
65044;DHT22;51617;48.158;16.464;2023-02-28T16:52:47;7.10;68.80
65044;DHT22;51617;48.158;16.464;2023-02-28T16:55:15;7.00;68.70
65044;DHT22;51617;48.158;16.464;2023-02-28T16:57:40;6.90;68.90
65044;DHT22;51617;48.158;16.464;2023-02-28T17:00:08;7.00;69.10
65044;DHT22;51617;48.158;16.464;2023-02-28T17:02:33;6.90;69.10
65044;DHT22;51617;48.158;16.464;2023-02-28T17:04:59;6.80;69.30
65044;DHT22;51617;48.158;16.464;2023-02-28T17:07:25;6.80;69.50
65044;DHT22;51617;48.158;16.464;2023-02-28T17:09:51;6.70;69.70
65044;DHT22;51617;48.158;16.464;2023-02-28T17:12:16;6.70;69.90
65044;DHT22;51617;48.158;16.464;2023-02-28T17:14:42;6.70;69.80
65044;DHT22;51617;48.158;16.464;2023-02-28T17:17:09;6.70;70.10
65044;DHT22;51617;48.158;16.464;2023-02-28T17:19:35;6.70;70.20
65044;DHT22;51617;48.158;16.464;2023-02-28T17:22:03;6.70;70.20
65044;DHT22;51617;48.158;16.464;2023-02-28T17:24:29;6.70;70.20
65044;DHT22;51617;48.158;16.464;2023-02-28T17:26:54;6.60;70.30
65044;DHT22;51617;48.158;16.464;2023-02-28T17:29:20;6.70;70.40
65044;DHT22;51617;48.158;16.464;2023-02-28T17:31:46;6.60;70.50
65044;DHT22;51617;48.158;16.464;2023-02-28T17:34:12;6.60;70.60
65044;DHT22;51617;48.158;16.464;2023-02-28T17:36:46;6.50;70.90
65044;DHT22;51617;48.158;16.464;2023-02-28T17:39:13;6.50;71.30
65044;DHT22;51617;48.158;16.464;2023-02-28T17:41:40;6.40;71.80
65044;DHT22;51617;48.158;16.464;2023-02-28T17:44:07;6.40;72.00
65044;DHT22;51617;48.158;16.464;2023-02-28T17:46:33;6.30;72.50
65044;DHT22;51617;48.158;16.464;2023-02-28T17:48:59;6.20;73.00
65044;DHT22;51617;48.158;16.464;2023-02-28T17:51:25;6.10;73.90
65044;DHT22;51617;48.158;16.464;2023-02-28T17:53:51;6.00;74.30
65044;DHT22;51617;48.158;16.464;2023-02-28T17:56:23;5.90;74.50
65044;DHT22;51617;48.158;16.464;2023-02-28T17:58:49;5.90;74.80